Time;durP1;ratioP1;P1;durP2;ratioP2;P2;SDS_P1;SDS_P2;PMS_P1;PMS_P2;Temp;Humidity;BMP_temperature;BMP_pressure;BME280_temperature;BME280_humidity;BME280_pressure;Samples;Min_cycle;Max_cycle;Signal;HPM_P1;HPM_P2
2022/06/01 00:00:56;;;;;;;4.00;2.70;;;;;;;9.40;100.00;96345.38;5014948;28;20405;-72
2022/06/01 00:03:24;;;;;;;4.75;2.72;;;;;;;9.47;100.00;96346.03;5014983;28;20045;-72
2022/06/01 00:05:53;;;;;;;4.47;2.78;;;;;;;9.49;100.00;96351.97;5016172;28;20048;-72
2022/06/01 00:08:20;;;;;;;5.95;2.88;;;;;;;9.33;100.00;96349.28;5014311;28;20508;-74
2022/06/01 00:10:46;;;;;;;6.07;2.88;;;;;;;9.38;100.00;96357.38;5017221;28;20042;-73
2022/06/01 00:13:12;;;;;;;6.15;2.83;;;;;;;9.29;100.00;96345.47;5014622;28;20048;-72
2022/06/01 00:15:37;;;;;;;5.55;2.90;;;;;;;9.24;100.00;96343.53;5030935;28;20048;-72
2022/06/01 00:18:03;;;;;;;11.48;3.22;;;;;;;9.44;100.00;96345.72;5012302;28;20492;-74
2022/06/01 00:20:29;;;;;;;5.68;3.22;;;;;;;9.45;100.00;96339.31;5014747;28;20573;-72
2022/06/01 00:22:56;;;;;;;7.45;3.42;;;;;;;9.33;100.00;96349.28;5018695;28;20497;-72
2022/06/01 00:25:22;;;;;;;4.43;2.95;;;;;;;9.28;100.00;96336.66;5017099;28;20042;-73
2022/06/01 00:27:47;;;;;;;5.88;3.42;;;;;;;9.57;100.00;96334.72;5015338;28;20047;-71
2022/06/01 00:30:14;;;;;;;6.78;3.60;;;;;;;9.60;100.00;96320.84;5017615;28;20432;-72
2022/06/01 00:32:40;;;;;;;5.15;3.28;;;;;;;9.49;100.00;96319.91;5015844;28;20045;-72
2022/06/01 00:35:08;;;;;;;6.43;3.20;;;;;;;9.35;100.00;96323.97;5015656;28;20042;-72
2022/06/01 00:37:34;;;;;;;5.85;3.30;;;;;;;9.37;100.00;96323.72;5014649;28;20052;-73
2022/06/01 00:39:59;;;;;;;5.45;3.53;;;;;;;9.62;100.00;96321.41;5017787;28;20589;-73
2022/06/01 00:42:28;;;;;;;7.53;3.80;;;;;;;9.87;100.00;96318.28;5014165;28;20037;-73
2022/06/01 00:44:54;;;;;;;5.20;3.60;;;;;;;9.85;100.00;96330.28;5013236;28;20429;-72
2022/06/01 00:47:23;;;;;;;8.07;3.83;;;;;;;9.93;100.00;96327.19;5016726;28;20048;-72
2022/06/01 00:50:05;;;;;;;7.60;4.25;;;;;;;10.03;100.00;96305.91;5012210;28;20037;-72
2022/06/01 00:52:36;;;;;;;8.00;3.47;;;;;;;10.25;100.00;96316.66;5013528;28;20065;-71
2022/06/01 00:55:15;;;;;;;7.30;3.67;;;;;;;10.35;100.00;96313.28;5018032;28;20389;-72
2022/06/01 00:57:41;;;;;;;5.55;3.67;;;;;;;10.01;100.00;96319.53;5015339;28;20034;-72
2022/06/01 01:00:20;;;;;;;8.05;3.80;;;;;;;9.91;100.00;96338.13;5013905;28;20048;-72
2022/06/01 01:02:48;;;;;;;9.40;3.97;;;;;;;10.11;100.00;96350.94;5015606;28;20038;-72
2022/06/01 01:05:16;;;;;;;6.90;3.90;;;;;;;9.96;100.00;96340.88;5016302;28;20403;-72
2022/06/01 01:07:43;;;;;;;8.38;4.30;;;;;;;9.80;100.00;96327.53;4999251;28;20036;-75
2022/06/01 01:10:12;;;;;;;5.68;3.88;;;;;;;9.99;100.00;96343.03;5015051;28;20041;-72
2022/06/01 01:12:58;;;;;;;6.65;4.10;;;;;;;9.86;100.00;96329.22;5013672;28;20034;-72
2022/06/01 01:15:51;;;;;;;6.05;3.78;;;;;;;9.98;100.00;96335.28;5012038;28;20130;-74
2022/06/01 01:18:17;;;;;;;5.45;3.50;;;;;;;10.04;100.00;96334.28;5012263;28;20108;-73
2022/06/01 01:21:10;;;;;;;7.10;3.50;;;;;;;9.88;100.00;96335.94;5015037;28;20090;-72
2022/06/01 01:24:00;;;;;;;5.22;3.58;;;;;;;10.03;100.00;96321.97;5013492;28;20112;-72
2022/06/01 01:26:27;;;;;;;6.22;3.80;;;;;;;10.09;100.00;96330.84;5015400;28;20437;-72
2022/06/01 01:28:53;;;;;;;7.10;3.65;;;;;;;9.66;100.00;96322.56;5012904;28;20044;-72
2022/06/01 01:31:21;;;;;;;6.43;3.58;;;;;;;9.36;100.00;96324.78;5014936;28;20053;-73
2022/06/01 01:33:50;;;;;;;5.45;3.80;;;;;;;9.14;100.00;96328.16;4992666;28;20076;-72
2022/06/01 01:36:20;;;;;;;5.30;3.63;;;;;;;9.24;100.00;96319.50;5012404;28;20056;-73
2022/06/01 01:39:01;;;;;;;6.85;4.10;;;;;;;9.47;100.00;96299.81;5015547;28;20037;-72
2022/06/01 01:41:36;;;;;;;6.07;3.90;;;;;;;9.45;100.00;96309.94;5017020;28;20059;-72
2022/06/01 01:44:09;;;;;;;5.85;3.75;;;;;;;9.35;100.00;96299.94;5014645;28;20583;-73
2022/06/01 01:46:35;;;;;;;7.60;4.25;;;;;;;9.27;100.00;96299.53;5019529;28;20130;-72
2022/06/01 01:49:02;;;;;;;7.97;4.18;;;;;;;9.31;100.00;96312.13;5012255;28;20120;-74
2022/06/01 01:51:29;;;;;;;7.00;4.18;;;;;;;9.30;100.00;96307.03;5013890;28;20540;-72
2022/06/01 01:53:55;;;;;;;6.28;4.05;;;;;;;9.55;100.00;96314.63;5015407;28;20228;-73
2022/06/01 01:56:39;;;;;;;9.27;4.10;;;;;;;9.85;100.00;96319.59;5015830;28;20041;-74
2022/06/01 01:59:24;;;;;;;6.80;4.43;;;;;;;10.06;100.00;96342.88;5013908;28;20049;-72
2022/06/01 02:02:04;;;;;;;7.47;3.70;;;;;;;10.11;100.00;96371.50;5014037;28;20053;-72
2022/06/01 02:07:31;;;;;;;6.28;3.85;;;;;;;9.75;100.00;96379.06;5013583;28;20041;-74
2022/06/01 02:12:41;;;;;;;7.38;3.63;;;;;;;9.21;100.00;96328.00;5015388;28;20037;-71
2022/06/01 02:15:21;;;;;;;6.47;3.75;;;;;;;8.95;100.00;96337.47;5021430;28;20044;-72
2022/06/01 02:17:54;;;;;;;5.13;3.15;;;;;;;8.91;100.00;96336.31;5020169;28;20710;-71
2022/06/01 02:20:32;;;;;;;5.85;2.88;;;;;;;8.68;100.00;96312.41;5017157;28;20029;-74
2022/06/01 02:23:00;;;;;;;6.75;4.13;;;;;;;8.47;100.00;96298.69;5018108;28;20060;-72
2022/06/01 02:25:29;;;;;;;7.65;4.88;;;;;;;8.30;100.00;96297.81;5035083;28;20520;-72
2022/06/01 02:27:57;;;;;;;8.88;4.68;;;;;;;8.20;100.00;96298.44;5016514;28;20132;-72
2022/06/01 02:30:30;;;;;;;6.60;4.05;;;;;;;8.06;100.00;96294.41;5017831;28;20042;-71
2022/06/01 02:32:57;;;;;;;7.32;4.10;;;;;;;7.98;100.00;96284.13;5019511;28;20045;-72
2022/06/01 02:35:24;;;;;;;5.88;3.78;;;;;;;7.88;100.00;96278.59;5004157;28;20600;-74
2022/06/01 02:37:55;;;;;;;7.10;3.78;;;;;;;7.92;100.00;96282.41;5015491;28;20037;-72
2022/06/01 02:40:23;;;;;;;6.23;3.80;;;;;;;7.97;100.00;96288.66;5017323;28;20503;-72
2022/06/01 02:42:52;;;;;;;6.38;3.85;;;;;;;7.99;100.00;96286.56;5019607;28;20029;-72
2022/06/01 02:45:20;;;;;;;8.40;4.07;;;;;;;8.08;100.00;96290.47;5017272;28;20500;-73
2022/06/01 02:47:47;;;;;;;6.53;4.13;;;;;;;8.02;100.00;96291.44;5017706;28;20045;-73
2022/06/01 02:50:17;;;;;;;6.63;3.85;;;;;;;8.05;100.00;96296.28;5017695;28;20103;-73
2022/06/01 02:52:44;;;;;;;5.80;3.72;;;;;;;8.05;100.00;96303.47;5019835;28;20052;-71
2022/06/01 02:55:11;;;;;;;5.65;3.63;;;;;;;8.32;100.00;96317.84;5015645;28;20444;-72
2022/06/01 02:57:40;;;;;;;5.22;3.72;;;;;;;8.49;100.00;96311.81;5004727;28;20063;-74
2022/06/01 03:00:21;;;;;;;4.90;3.50;;;;;;;8.69;100.00;96303.34;5017678;28;20072;-71
2022/06/01 03:02:51;;;;;;;6.80;3.95;;;;;;;8.71;100.00;96309.25;5016972;28;20465;-72
2022/06/01 03:05:19;;;;;;;8.85;4.00;;;;;;;8.61;100.00;96316.03;5015819;28;20042;-72
2022/06/01 03:07:44;;;;;;;8.43;3.45;;;;;;;8.62;100.00;96316.84;5016392;28;20120;-73
2022/06/01 03:10:10;;;;;;;5.32;3.40;;;;;;;8.67;100.00;96326.81;5015455;28;20045;-72
2022/06/01 03:12:37;;;;;;;6.85;3.83;;;;;;;8.74;100.00;96332.81;5019537;28;20045;-74
2022/06/01 03:15:04;;;;;;;8.68;4.30;;;;;;;8.69;100.00;96319.38;5014857;28;20093;-74
2022/06/01 03:17:30;;;;;;;7.78;3.80;;;;;;;8.65;100.00;96316.38;5016526;28;20042;-72
2022/06/01 03:19:58;;;;;;;7.85;4.65;;;;;;;8.48;100.00;96316.34;5017630;28;20038;-71
2022/06/01 03:22:24;;;;;;;6.47;4.38;;;;;;;8.60;100.00;96327.75;5005899;28;20057;-73
2022/06/01 03:24:49;;;;;;;5.70;3.55;;;;;;;8.63;100.00;96313.13;5013168;28;20397;-73
2022/06/01 03:27:15;;;;;;;5.53;3.38;;;;;;;8.71;100.00;96322.59;5018482;28;20044;-72
2022/06/01 03:29:41;;;;;;;7.78;2.70;;;;;;;8.51;100.00;96329.19;5018252;28;20037;-72
2022/06/01 03:32:07;;;;;;;6.05;3.67;;;;;;;8.61;100.00;96329.38;5015666;28;20049;-72
2022/06/01 03:34:32;;;;;;;6.43;3.50;;;;;;;8.61;100.00;96337.38;5000301;28;20627;-74
2022/06/01 03:36:58;;;;;;;5.47;3.42;;;;;;;8.64;100.00;96338.78;5018686;28;20052;-73
2022/06/01 03:39:24;;;;;;;6.72;3.42;;;;;;;8.70;100.00;96345.00;5017758;28;20445;-73
2022/06/01 03:41:49;;;;;;;4.70;3.33;;;;;;;8.92;100.00;96335.25;5022917;28;20037;-72
2022/06/01 03:47:10;;;;;;;5.82;3.05;;;;;;;9.03;100.00;96339.72;5018233;28;20057;-72
2022/06/01 03:49:37;;;;;;;4.05;2.80;;;;;;;9.10;100.00;96335.03;5018037;28;20099;-72
2022/06/01 03:52:04;;;;;;;3.97;2.58;;;;;;;9.21;100.00;96342.16;5015609;28;20037;-73
2022/06/01 03:54:30;;;;;;;4.03;2.70;;;;;;;9.30;100.00;96339.09;5016356;28;20048;-72
2022/06/01 03:56:56;;;;;;;3.50;2.30;;;;;;;9.42;100.00;96337.97;5016497;28;20401;-71
2022/06/01 03:59:21;;;;;;;4.53;2.28;;;;;;;9.53;100.00;96332.75;5019168;28;20049;-73
2022/06/01 04:01:47;;;;;;;3.80;2.10;;;;;;;9.59;100.00;96337.94;5018174;28;20065;-72
2022/06/01 04:04:12;;;;;;;5.15;2.50;;;;;;;9.56;100.00;96343.75;5016236;28;20071;-72
2022/06/01 04:06:38;;;;;;;4.97;2.15;;;;;;;9.59;100.00;96343.28;5016238;28;20041;-72
2022/06/01 04:09:03;;;;;;;3.88;2.10;;;;;;;9.58;100.00;96338.19;5014053;28;20076;-74
2022/06/01 04:11:29;;;;;;;3.35;2.00;;;;;;;9.48;100.00;96347.66;5014931;28;20045;-72
2022/06/01 04:13:54;;;;;;;3.75;2.38;;;;;;;9.45;100.00;96352.69;5018450;28;20049;-72
2022/06/01 04:16:20;;;;;;;4.65;2.28;;;;;;;9.55;100.00;96354.69;5017087;28;20042;-73
2022/06/01 04:18:46;;;;;;;4.22;2.33;;;;;;;9.64;100.00;96355.88;5015256;28;20038;-73
2022/06/01 04:21:12;;;;;;;3.40;2.20;;;;;;;9.69;100.00;96359.44;5011048;28;20163;-74
2022/06/01 04:23:38;;;;;;;4.78;2.40;;;;;;;9.72;100.00;96356.28;5014401;28;20331;-72
2022/06/01 04:26:03;;;;;;;5.47;2.45;;;;;;;9.67;100.00;96345.53;5015785;28;20120;-72
2022/06/01 04:28:29;;;;;;;4.90;2.08;;;;;;;9.51;100.00;96361.59;5017237;28;20072;-73
2022/06/01 04:30:55;;;;;;;3.22;2.00;;;;;;;9.58;100.00;96360.38;5019238;28;20572;-73
2022/06/01 04:33:21;;;;;;;6.72;2.47;;;;;;;9.70;100.00;96354.91;5015355;28;20351;-74
2022/06/01 04:35:46;;;;;;;4.47;2.03;;;;;;;9.76;100.00;96348.59;5015762;28;20037;-72
2022/06/01 04:38:15;;;;;;;4.30;1.98;;;;;;;9.79;100.00;96353.44;5015434;28;20045;-72
2022/06/01 04:40:49;;;;;;;3.40;1.80;;;;;;;9.83;100.00;96343.09;5014764;28;20034;-73
2022/06/01 04:43:18;;;;;;;3.78;1.77;;;;;;;9.75;100.00;96337.09;5015640;28;20155;-73
2022/06/01 04:45:43;;;;;;;3.35;1.60;;;;;;;9.50;100.00;96342.09;5010473;28;20088;-73
2022/06/01 04:48:09;;;;;;;6.70;1.80;;;;;;;9.44;100.00;96356.41;5014857;28;20565;-75
2022/06/01 04:50:35;;;;;;;6.25;2.03;;;;;;;9.35;100.00;96350.66;4997758;28;20117;-73
2022/06/01 04:53:01;;;;;;;3.22;1.95;;;;;;;9.35;100.00;96355.19;5015639;28;20052;-75
2022/06/01 04:55:27;;;;;;;3.97;1.80;;;;;;;9.36;100.00;96354.94;5015647;28;20106;-75
2022/06/01 04:57:52;;;;;;;3.15;1.98;;;;;;;9.44;100.00;96351.06;5016930;28;20499;-73
2022/06/01 05:00:19;;;;;;;4.13;2.03;;;;;;;9.34;100.00;96353.56;5015552;28;20041;-73
2022/06/01 05:02:44;;;;;;;3.40;1.88;;;;;;;9.40;100.00;96348.06;5013802;28;20043;-73
2022/06/01 05:05:10;;;;;;;4.32;2.10;;;;;;;9.47;100.00;96351.38;5014601;28;20038;-74
2022/06/01 05:07:36;;;;;;;4.32;2.38;;;;;;;9.50;100.00;96350.09;5015496;28;20045;-73
2022/06/01 05:10:01;;;;;;;5.07;2.45;;;;;;;9.61;100.00;96351.03;5015549;28;20540;-74
2022/06/01 05:12:27;;;;;;;6.25;2.38;;;;;;;9.60;100.00;96350.25;5032867;28;20505;-74
2022/06/01 05:14:52;;;;;;;3.92;2.40;;;;;;;9.54;100.00;96353.06;5016573;28;20044;-73
2022/06/01 05:17:19;;;;;;;5.82;2.00;;;;;;;9.69;100.00;96356.78;5014768;28;20141;-73
2022/06/01 05:19:44;;;;;;;5.72;2.28;;;;;;;9.70;100.00;96361.06;5013806;28;20033;-73
2022/06/01 05:22:10;;;;;;;5.25;2.65;;;;;;;9.77;100.00;96351.03;5014371;28;20459;-73
2022/06/01 05:24:35;;;;;;;6.00;2.40;;;;;;;9.72;100.00;96348.25;5015191;28;20045;-74
2022/06/01 05:27:01;;;;;;;4.15;2.63;;;;;;;9.70;100.00;96346.91;4993207;28;20057;-74
2022/06/01 05:29:27;;;;;;;5.55;2.58;;;;;;;9.70;100.00;96352.25;5031100;28;20043;-74
2022/06/01 05:31:54;;;;;;;4.22;2.65;;;;;;;9.73;100.00;96355.25;5015769;28;20132;-74
2022/06/01 05:34:21;;;;;;;5.80;2.42;;;;;;;9.80;100.00;96355.06;5016951;28;20400;-73
2022/06/01 05:36:47;;;;;;;7.65;2.80;;;;;;;9.87;100.00;96362.91;5016198;28;20037;-73
2022/06/01 05:39:12;;;;;;;6.55;2.42;;;;;;;9.94;100.00;96358.19;5012509;28;20385;-74
2022/06/01 05:41:38;;;;;;;6.45;2.60;;;;;;;10.07;100.00;96351.69;5016669;28;20408;-75
2022/06/01 05:44:04;;;;;;;5.65;2.47;;;;;;;10.21;100.00;96361.78;4997806;28;20068;-75
2022/06/01 05:46:30;;;;;;;8.23;2.55;;;;;;;10.32;100.00;96368.09;5013435;28;20489;-73
2022/06/01 05:48:56;;;;;;;9.73;2.97;;;;;;;10.38;100.00;96368.97;5018725;28;20448;-75
2022/06/01 05:51:23;;;;;;;11.00;2.88;;;;;;;10.43;100.00;96364.50;5021802;28;20441;-74
2022/06/01 05:53:48;;;;;;;5.90;2.63;;;;;;;10.46;100.00;96363.97;5019104;28;20131;-75
2022/06/01 05:56:14;;;;;;;14.98;2.58;;;;;;;10.52;100.00;96363.00;5016495;28;20505;-75
2022/06/01 05:58:39;;;;;;;6.30;2.67;;;;;;;10.57;100.00;96365.69;5003897;28;20159;-74
2022/06/01 06:01:07;;;;;;;5.03;2.83;;;;;;;10.64;100.00;96368.19;5018692;28;20057;-74
2022/06/01 06:03:33;;;;;;;6.05;2.90;;;;;;;10.73;100.00;96368.56;5022825;28;20053;-73
2022/06/01 06:06:13;;;;;;;6.25;3.20;;;;;;;10.72;100.00;96365.06;5020698;28;20045;-73
2022/06/01 06:08:40;;;;;;;6.72;3.47;;;;;;;10.74;100.00;96360.28;5020248;28;20114;-73
2022/06/01 06:11:06;;;;;;;5.30;3.28;;;;;;;10.76;100.00;96370.75;5034352;28;20045;-75
2022/06/01 06:13:36;;;;;;;5.03;3.33;;;;;;;10.83;100.00;96363.31;5016915;28;20083;-74
2022/06/01 06:16:03;;;;;;;5.57;3.10;;;;;;;10.97;100.00;96369.06;5021272;28;20583;-73
2022/06/01 06:18:29;;;;;;;6.80;3.53;;;;;;;11.08;100.00;96374.28;5018359;28;20037;-75
2022/06/01 06:20:55;;;;;;;5.75;3.80;;;;;;;11.05;100.00;96376.63;5019765;28;20042;-73
2022/06/01 06:23:21;;;;;;;9.77;4.00;;;;;;;11.13;100.00;96377.00;5002965;28;20053;-73
2022/06/01 06:25:47;;;;;;;5.80;3.40;;;;;;;11.14;100.00;96377.81;5034776;28;20036;-74
2022/06/01 06:28:13;;;;;;;8.63;4.28;;;;;;;11.13;100.00;96368.97;5017869;28;20048;-73
2022/06/01 06:30:39;;;;;;;8.20;3.95;;;;;;;11.18;100.00;96376.25;4988863;28;20052;-74
2022/06/01 06:33:06;;;;;;;7.00;4.35;;;;;;;11.11;100.00;96376.44;5019633;28;20664;-74
2022/06/01 06:35:33;;;;;;;7.88;4.45;;;;;;;11.03;100.00;96379.56;5018852;28;20535;-73
2022/06/01 06:37:59;;;;;;;8.10;5.13;;;;;;;11.15;100.00;96377.56;5017318;28;20131;-73
2022/06/01 06:40:25;;;;;;;9.45;4.93;;;;;;;11.22;100.00;96388.06;5031969;28;20639;-75
2022/06/01 06:42:52;;;;;;;8.48;4.90;;;;;;;11.42;100.00;96377.53;5016276;28;20041;-73
2022/06/01 06:45:19;;;;;;;8.27;4.80;;;;;;;11.55;100.00;96386.19;5031792;28;20045;-73
2022/06/01 06:47:44;;;;;;;9.57;5.20;;;;;;;11.65;100.00;96392.44;5018597;28;20064;-73
2022/06/01 06:50:12;;;;;;;10.45;5.07;;;;;;;11.77;100.00;96384.22;5017035;28;20485;-73
2022/06/01 06:52:38;;;;;;;8.23;4.70;;;;;;;12.14;100.00;96392.28;5033081;28;20471;-75
2022/06/01 06:55:04;;;;;;;8.75;5.00;;;;;;;12.46;100.00;96389.50;5018191;28;20379;-74
2022/06/01 06:57:30;;;;;;;6.97;4.82;;;;;;;12.55;100.00;96377.19;5018104;28;20471;-74
2022/06/01 06:59:55;;;;;;;8.48;5.68;;;;;;;12.63;100.00;96378.56;5001412;28;20037;-75
2022/06/01 07:02:21;;;;;;;8.70;5.00;;;;;;;12.44;100.00;96390.81;5018872;28;20377;-75
2022/06/01 07:04:47;;;;;;;11.30;5.10;;;;;;;12.42;100.00;96382.22;5017340;28;20052;-73
2022/06/01 07:07:14;;;;;;;8.35;5.22;;;;;;;12.31;100.00;96383.25;4999804;28;20049;-75
2022/06/01 07:09:40;;;;;;;9.27;5.30;;;;;;;12.29;100.00;96386.16;5013634;28;20049;-75
2022/06/01 07:12:05;;;;;;;13.95;5.63;;;;;;;12.50;100.00;96384.41;5013829;28;20056;-76
2022/06/01 07:14:31;;;;;;;9.98;5.25;;;;;;;12.99;100.00;96384.00;5016349;28;20107;-75
2022/06/01 07:17:00;;;;;;;9.57;5.47;;;;;;;13.10;100.00;96391.84;5017991;28;20098;-72
2022/06/01 07:19:27;;;;;;;8.73;4.93;;;;;;;13.04;100.00;96386.72;5020106;28;20045;-71
2022/06/01 07:21:52;;;;;;;7.53;5.25;;;;;;;13.28;100.00;96392.44;5017465;28;20475;-72
2022/06/01 07:24:18;;;;;;;10.48;5.35;;;;;;;13.47;100.00;96390.84;5015091;28;20124;-72
2022/06/01 07:26:47;;;;;;;8.85;5.50;;;;;;;13.52;100.00;96388.16;5015641;28;20378;-72
2022/06/01 07:29:14;;;;;;;8.85;5.43;;;;;;;13.24;100.00;96391.38;5017032;28;20045;-72
2022/06/01 07:31:41;;;;;;;8.18;4.82;;;;;;;13.23;100.00;96395.09;5014578;28;20053;-72
2022/06/01 07:34:07;;;;;;;9.23;4.97;;;;;;;13.19;100.00;96381.38;5014808;28;20076;-72
2022/06/01 07:36:34;;;;;;;12.38;4.65;;;;;;;13.40;100.00;96378.75;5021978;28;20543;-72
2022/06/01 07:44:34;;;;;;;7.10;4.10;;;;;;;13.38;100.00;96384.38;5032057;28;20109;-74
2022/06/01 07:47:00;;;;;;;9.90;4.43;;;;;;;13.22;100.00;96388.13;5032461;28;20097;-72
2022/06/01 07:49:26;;;;;;;11.98;4.10;;;;;;;13.22;100.00;96388.13;4995252;28;20046;-72
2022/06/01 07:51:53;;;;;;;7.45;3.92;;;;;;;13.02;100.00;96389.66;5019561;28;20252;-72
2022/06/01 07:54:19;;;;;;;8.40;3.88;;;;;;;13.26;100.00;96387.31;5012380;28;20492;-72
2022/06/01 07:56:45;;;;;;;7.15;3.60;;;;;;;13.24;100.00;96383.31;5015968;28;20641;-71
2022/06/01 07:59:11;;;;;;;7.65;3.50;;;;;;;13.38;100.00;96384.38;4990092;28;20087;-74
2022/06/01 08:01:37;;;;;;;5.22;2.95;;;;;;;13.36;100.00;96389.22;5014878;28;20041;-72
2022/06/01 08:04:05;;;;;;;6.82;2.90;;;;;;;13.78;100.00;96386.28;5035594;28;20045;-71
2022/06/01 08:06:32;;;;;;;7.10;3.40;;;;;;;13.70;100.00;96383.31;5016662;28;20064;-72
2022/06/01 08:08:58;;;;;;;6.57;3.17;;;;;;;13.60;100.00;96384.91;5012546;28;20819;-71
2022/06/01 08:13:06;;;;;;;4.88;2.17;;;;;;;13.57;100.00;96380.09;4999713;28;20073;-71
2022/06/01 08:14:11;;;;;;;4.63;2.30;;;;;;;13.85;100.00;96388.66;5031411;28;20038;-71
2022/06/01 08:16:38;;;;;;;4.57;2.17;;;;;;;13.63;100.00;96387.09;5016177;28;20550;-73
2022/06/01 08:19:05;;;;;;;4.40;2.60;;;;;;;14.00;100.00;96396.72;5015325;28;20176;-73
2022/06/01 08:21:32;;;;;;;4.30;2.47;;;;;;;14.09;100.00;96394.31;5017205;28;20049;-73
2022/06/01 08:23:57;;;;;;;6.63;2.80;;;;;;;14.39;100.00;96390.72;5012719;28;20064;-72
2022/06/01 08:26:23;;;;;;;5.15;3.13;;;;;;;14.76;100.00;96396.53;5013690;28;20528;-72
2022/06/01 08:28:49;;;;;;;5.60;1.77;;;;;;;14.46;100.00;96400.13;5012350;28;20800;-72
2022/06/01 08:31:15;;;;;;;5.22;1.90;;;;;;;14.04;100.00;96403.19;5013513;28;20053;-73
2022/06/01 08:33:41;;;;;;;6.40;1.75;;;;;;;14.26;100.00;96402.06;5016072;28;20107;-71
2022/06/01 08:36:06;;;;;;;4.20;1.70;;;;;;;14.39;100.00;96398.78;5015284;28;20206;-71
2022/06/01 08:38:32;;;;;;;3.20;1.73;;;;;;;14.51;100.00;96404.72;5011657;28;20156;-74
2022/06/01 08:41:05;;;;;;;7.78;2.28;;;;;;;14.94;100.00;96402.38;5013794;28;20092;-73
2022/06/01 08:43:37;;;;;;;4.88;2.25;;;;;;;15.28;100.00;96397.88;5012842;28;20187;-71
2022/06/01 08:46:03;;;;;;;5.82;2.67;;;;;;;15.36;100.00;96387.59;5014964;28;20037;-74
2022/06/01 08:48:39;;;;;;;6.50;2.60;;;;;;;15.13;100.00;96391.78;5015564;28;20555;-72
2022/06/01 08:51:06;;;;;;;6.32;2.65;;;;;;;14.91;100.00;96403.72;5014054;28;20042;-74
2022/06/01 08:53:33;;;;;;;7.43;2.33;;;;;;;14.63;100.00;96402.53;5019888;28;20071;-72
2022/06/01 08:56:09;;;;;;;5.25;2.50;;;;;;;15.37;100.00;96390.00;5016963;28;20241;-73
2022/06/01 08:58:41;;;;;;;4.07;2.35;;;;;;;15.46;100.00;96392.91;5015934;28;20068;-73
2022/06/01 09:01:23;;;;;;;4.40;1.80;;;;;;;15.23;100.00;96397.91;5013051;28;20478;-72
2022/06/01 09:04:24;;;;;;;4.03;1.60;;;;;;;15.13;100.00;96403.34;4997151;28;20068;-74
2022/06/01 09:06:56;;;;;;;3.13;1.40;;;;;;;15.83;94.67;96406.66;5027018;28;20045;-72
2022/06/01 09:09:35;;;;;;;5.80;1.40;;;;;;;15.65;98.52;96404.66;5029480;28;20288;-72
2022/06/01 09:12:03;;;;;;;4.72;1.70;;;;;;;15.31;100.00;96401.88;5011820;28;20061;-71
2022/06/01 09:14:35;;;;;;;3.42;1.85;;;;;;;15.08;100.00;96407.97;5015204;28;20045;-71
2022/06/01 09:17:02;;;;;;;4.57;1.48;;;;;;;15.09;100.00;96415.75;5020620;28;20048;-71
2022/06/01 09:19:27;;;;;;;3.65;1.38;;;;;;;15.36;100.00;96406.47;5016447;28;20080;-72
2022/06/01 09:24:54;;;;;;;5.75;1.38;;;;;;;15.83;99.66;96403.97;5015635;28;20046;-71
2022/06/01 09:27:38;;;;;;;4.50;1.50;;;;;;;16.18;94.81;96410.09;5013213;28;20111;-70
2022/06/01 09:30:31;;;;;;;5.15;1.52;;;;;;;16.07;96.63;96408.59;5029781;28;20045;-72
2022/06/01 09:33:22;;;;;;;7.25;1.33;;;;;;;15.82;94.91;96413.16;5015375;28;20042;-70
2022/06/01 09:36:09;;;;;;;3.58;1.40;;;;;;;15.89;100.00;96412.81;5018371;28;20041;-71
2022/06/01 09:38:46;;;;;;;4.55;1.30;;;;;;;16.36;97.62;96401.31;5012137;28;20389;-71
2022/06/01 09:41:39;;;;;;;3.15;1.33;;;;;;;16.62;92.40;96415.31;5014109;28;20073;-71
2022/06/01 09:44:10;;;;;;;2.88;1.30;;;;;;;16.23;91.50;96411.97;5011248;28;20087;-71
2022/06/01 09:46:49;;;;;;;;;;;;;;;16.06;97.39;96415.09;5014008;28;20048;-70
2022/06/01 09:49:17;;;;;;;4.40;1.50;;;;;;;15.98;94.38;96411.13;5012604;28;19917;-71
2022/06/01 09:51:44;;;;;;;3.38;1.30;;;;;;;15.96;91.15;96415.19;5016162;28;20386;-70
2022/06/01 09:54:25;;;;;;;4.78;1.13;;;;;;;16.53;88.51;96408.94;5015944;28;20547;-72
2022/06/01 09:56:51;;;;;;;5.80;1.00;;;;;;;16.44;85.29;96413.38;5015078;28;20103;-72
2022/06/01 10:08:07;;;;;;;2.45;1.00;;;;;;;16.54;83.18;96415.94;5014779;28;20070;-71
2022/06/01 10:10:32;;;;;;;3.70;1.00;;;;;;;16.52;84.98;96428.13;5035607;28;20125;-73
2022/06/01 10:12:59;;;;;;;3.10;1.20;;;;;;;16.78;84.79;96420.56;5015236;28;20382;-71
2022/06/01 10:15:47;;;;;;;3.15;1.20;;;;;;;17.40;79.81;96424.09;5013932;28;20111;-71
2022/06/01 10:18:20;;;;;;;2.78;1.13;;;;;;;17.47;80.70;96424.53;5014228;28;20075;-71
2022/06/01 10:20:58;;;;;;;2.65;1.10;;;;;;;17.57;77.24;96426.25;5014598;28;20496;-72
2022/06/01 10:23:35;;;;;;;4.20;1.00;;;;;;;17.64;75.96;96432.13;5018612;28;20057;-71
2022/06/01 10:26:13;;;;;;;5.53;1.20;;;;;;;17.57;82.19;96428.97;5017402;28;20111;-71
2022/06/01 10:28:44;;;;;;;4.50;1.05;;;;;;;17.65;73.64;96428.31;4319367;28;10001773;-71
2022/06/01 10:31:31;;;;;;;3.33;1.20;;;;;;;17.05;81.01;96430.78;5011936;28;20431;-71
2022/06/01 10:34:10;;;;;;;2.35;1.02;;;;;;;17.26;79.60;96427.50;5011695;28;20132;-73
2022/06/01 10:36:51;;;;;;;3.30;1.10;;;;;;;17.79;76.82;96432.72;5016580;28;20527;-71
2022/06/01 10:39:25;;;;;;;4.13;1.10;;;;;;;17.74;74.47;96429.28;5028644;28;20045;-71
2022/06/01 10:42:19;;;;;;;6.03;1.02;;;;;;;18.17;68.80;96419.09;5018408;28;20053;-72
2022/06/01 10:45:16;;;;;;;2.67;0.98;;;;;;;18.35;75.87;96412.78;5013557;28;20064;-71
2022/06/01 10:48:14;;;;;;;3.45;1.10;;;;;;;19.05;66.77;96419.84;4964323;28;20049;-71
2022/06/01 10:50:49;;;;;;;2.53;1.08;;;;;;;19.41;62.62;96421.81;5015835;28;20038;-72
2022/06/01 10:53:57;;;;;;;3.72;0.95;;;;;;;19.03;65.19;96419.38;5015487;28;20156;-71
2022/06/01 10:56:23;;;;;;;2.85;0.93;;;;;;;18.58;64.43;96421.84;5015073;28;20103;-71
2022/06/01 10:58:52;;;;;;;1.85;0.85;;;;;;;18.23;68.32;96422.53;5031677;28;20548;-73
2022/06/01 11:01:42;;;;;;;8.95;1.15;;;;;;;18.17;68.97;96419.09;5017241;28;20048;-71
2022/06/01 11:04:39;;;;;;;2.03;0.90;;;;;;;18.61;65.86;96412.34;5029532;28;20037;-72
2022/06/01 11:07:17;;;;;;;3.35;1.00;;;;;;;17.63;72.53;96422.41;5015121;28;20769;-71
2022/06/01 11:10:01;;;;;;;5.13;1.27;;;;;;;18.31;64.16;96417.22;5013082;28;20042;-72
2022/06/01 11:12:48;;;;;;;3.17;1.10;;;;;;;19.18;54.56;96410.91;5028325;28;20428;-71
2022/06/01 11:15:44;;;;;;;4.35;1.02;;;;;;;20.13;54.29;96407.34;5011732;28;20060;-71
2022/06/01 11:18:30;;;;;;;3.22;1.05;;;;;;;21.49;52.76;96396.50;5013209;28;20049;-71
2022/06/01 11:21:29;;;;;;;2.72;1.50;;;;;;;22.12;44.19;96394.25;5016542;28;20046;-71
2022/06/01 11:24:32;;;;;;;2.88;0.98;;;;;;;23.52;37.78;96396.00;5014833;28;20045;-71
2022/06/01 11:27:18;;;;;;;4.47;1.00;;;;;;;22.15;42.89;96396.31;5014378;28;20052;-71
2022/06/01 11:30:02;;;;;;;4.57;1.20;;;;;;;22.84;44.62;96395.25;5014472;28;20327;-71
2022/06/01 11:32:40;;;;;;;2.97;1.05;;;;;;;23.96;37.25;96391.78;5012832;28;20093;-71
2022/06/01 11:35:19;;;;;;;2.50;0.90;;;;;;;21.73;44.27;96400.69;5018069;28;20452;-72
2022/06/01 11:37:50;;;;;;;2.42;0.95;;;;;;;20.89;52.70;96396.38;5015948;28;20053;-72
2022/06/01 11:40:26;;;;;;;2.33;0.85;;;;;;;20.37;53.92;96401.56;5013054;28;20608;-71
2022/06/01 11:42:57;;;;;;;1.80;0.80;;;;;;;19.29;56.00;96411.47;5016622;28;20543;-72
2022/06/01 11:45:28;;;;;;;;;;;;;;;19.01;60.90;96410.75;5013766;28;20037;-72
2022/06/01 11:48:01;;;;;;;2.28;0.88;;;;;;;19.00;56.71;96419.19;5015266;28;19932;-72
2022/06/01 11:50:33;;;;;;;2.90;1.08;;;;;;;20.17;54.70;96408.34;5014443;28;20037;-72
2022/06/01 11:53:01;;;;;;;8.15;1.27;;;;;;;26.21;34.33;96391.47;5014353;28;20054;-72
2022/06/01 11:55:36;;;;;;;4.00;1.13;;;;;;;25.35;34.36;96392.88;5015588;28;20044;-71
2022/06/01 11:58:41;;;;;;;6.13;1.20;;;;;;;28.51;28.57;96386.09;5014927;28;20099;-73
2022/06/01 12:01:29;;;;;;;4.22;1.05;;;;;;;30.83;26.25;96369.13;4975553;28;20058;-73
2022/06/01 12:04:10;;;;;;;2.92;1.20;;;;;;;29.59;25.92;96381.13;4975118;28;20184;-72
2022/06/01 12:06:44;;;;;;;4.53;1.38;;;;;;;24.73;33.32;96389.34;5007247;28;20057;-72
2022/06/01 12:09:35;;;;;;;3.67;1.02;;;;;;;22.20;36.71;96391.50;5013947;28;20412;-71
2022/06/01 12:12:01;;;;;;;;;;;;;;;20.46;46.05;96399.72;5015809;28;20536;-72
2022/06/01 12:14:41;;;;;;;3.67;1.15;;;;;;;20.54;47.60;96393.53;5032134;28;20012;-72